Time;durP1;ratioP1;P1;durP2;ratioP2;P2;SDS_P1;SDS_P2;PMS_P1;PMS_P2;Temp;Humidity;BMP_temperature;BMP_pressure;BME280_temperature;BME280_humidity;BME280_pressure;Samples;Min_cycle;Max_cycle;Signal;HPM_P1;HPM_P2
2021/12/31 00:02:23;;;;;;;18.67;2.83;;;;;;;12.90;87.91;101627.41;5094382;28;20387;-70
2021/12/31 00:04:50;;;;;;;9.00;2.58;;;;;;;12.90;87.82;101617.03;5094408;28;20035;-70
2021/12/31 00:07:16;;;;;;;10.68;2.60;;;;;;;12.93;87.88;101624.44;5076190;28;20031;-70
2021/12/31 00:09:41;;;;;;;7.95;2.25;;;;;;;12.96;87.77;101620.69;5094263;28;20378;-69
2021/12/31 00:12:08;;;;;;;13.38;2.78;;;;;;;12.93;88.36;101619.25;5076030;28;20032;-70
2021/12/31 00:14:36;;;;;;;11.77;3.08;;;;;;;12.93;88.41;101621.84;5093806;28;20032;-70
2021/12/31 00:17:02;;;;;;;12.82;3.58;;;;;;;12.86;88.82;101629.56;5093182;28;20035;-70
2021/12/31 00:19:31;;;;;;;10.30;2.90;;;;;;;12.84;88.82;101620.34;5093180;28;20088;-70
2021/12/31 00:21:58;;;;;;;9.02;2.78;;;;;;;12.76;89.68;101618.66;5075320;28;20113;-70
2021/12/31 00:24:25;;;;;;;9.93;2.70;;;;;;;12.76;89.82;101633.41;5094039;28;20077;-71
2021/12/31 00:26:51;;;;;;;10.85;2.80;;;;;;;12.77;89.81;101635.00;5093977;28;20020;-70
2021/12/31 00:29:16;;;;;;;11.55;3.30;;;;;;;12.69;90.34;101638.53;5075716;28;20382;-69
2021/12/31 00:31:41;;;;;;;14.07;2.85;;;;;;;12.71;90.25;101644.31;5075686;28;20110;-70
2021/12/31 00:34:07;;;;;;;10.82;3.30;;;;;;;12.73;90.34;101644.97;5075715;28;20016;-70
2021/12/31 00:36:45;;;;;;;13.70;3.58;;;;;;;12.67;90.90;101640.50;5093858;28;20016;-70
2021/12/31 00:39:12;;;;;;;7.82;3.10;;;;;;;12.73;90.47;101639.78;5075660;28;20019;-70
2021/12/31 00:41:37;;;;;;;11.68;3.40;;;;;;;12.73;90.81;101636.38;5075607;28;20023;-70
2021/12/31 00:44:03;;;;;;;10.00;3.17;;;;;;;12.72;90.51;101639.97;5075525;28;20039;-70
2021/12/31 00:46:30;;;;;;;11.63;3.50;;;;;;;12.68;90.92;101630.91;5093617;28;20028;-68
2021/12/31 00:48:56;;;;;;;13.38;4.32;;;;;;;12.68;90.80;101655.06;5094194;28;20103;-71
2021/12/31 00:51:21;;;;;;;10.07;3.78;;;;;;;12.65;91.10;101638.06;5075514;28;20105;-70
2021/12/31 00:53:46;;;;;;;10.05;3.47;;;;;;;12.71;90.80;101636.53;5075471;28;20020;-70
2021/12/31 00:56:12;;;;;;;10.95;3.83;;;;;;;12.75;90.48;101632.63;5093398;28;20558;-71
2021/12/31 00:58:37;;;;;;;10.27;3.90;;;;;;;12.78;90.28;101628.88;5094099;28;20059;-71
2021/12/31 01:01:03;;;;;;;11.10;3.97;;;;;;;12.78;90.51;101627.06;5075419;28;20024;-71
2021/12/31 01:03:28;;;;;;;7.93;3.22;;;;;;;12.81;90.37;101642.28;5093816;28;20024;-71
2021/12/31 01:05:53;;;;;;;10.65;3.50;;;;;;;12.81;90.14;101636.28;5093754;28;20043;-70
2021/12/31 01:08:19;;;;;;;9.73;3.67;;;;;;;12.83;89.84;101631.69;5075224;28;20024;-71
2021/12/31 01:10:44;;;;;;;9.35;3.75;;;;;;;12.90;90.03;101637.00;5075360;28;20074;-70
2021/12/31 01:13:14;;;;;;;7.28;3.50;;;;;;;12.86;90.20;101629.56;5075162;28;20540;-71
2021/12/31 01:15:44;;;;;;;8.90;3.47;;;;;;;12.88;90.18;101634.56;5094019;28;20529;-70
2021/12/31 01:20:34;;;;;;;9.70;3.45;;;;;;;12.84;90.50;101633.31;5093396;28;20375;-70
2021/12/31 01:23:00;;;;;;;9.25;3.70;;;;;;;12.90;90.18;101627.41;5093314;28;20028;-69
2021/12/31 01:25:25;;;;;;;10.02;3.60;;;;;;;12.88;90.17;101637.16;5093293;28;20028;-70
2021/12/31 01:27:51;;;;;;;9.57;3.50;;;;;;;12.90;90.12;101629.22;5093257;28;20540;-70
2021/12/31 01:30:16;;;;;;;9.48;3.55;;;;;;;12.95;90.26;101637.25;5093472;28;20466;-70
2021/12/31 01:32:42;;;;;;;11.02;3.40;;;;;;;12.89;90.17;101641.38;5093196;28;20024;-70
2021/12/31 01:35:08;;;;;;;10.02;3.42;;;;;;;12.87;90.50;101643.34;5093204;28;20475;-71
2021/12/31 01:37:34;;;;;;;7.85;3.30;;;;;;;12.86;90.58;101644.34;5093138;28;20115;-70
2021/12/31 01:39:59;;;;;;;9.55;3.58;;;;;;;12.84;90.95;101648.88;5093062;28;20016;-71
2021/12/31 01:42:35;;;;;;;9.65;3.63;;;;;;;12.82;91.38;101650.84;5093625;28;20028;-70
2021/12/31 01:45:12;;;;;;;25.88;12.48;;;;;;;12.76;91.74;101646.38;5074988;28;20111;-70
2021/12/31 01:50:19;;;;;;;9.63;3.60;;;;;;;12.72;92.24;101656.31;5093320;28;20071;-70
2021/12/31 01:52:44;;;;;;;10.63;3.58;;;;;;;12.71;92.06;101652.09;5092844;28;20059;-70
2021/12/31 01:55:12;;;;;;;9.18;3.75;;;;;;;12.69;91.80;101646.31;5093356;28;20051;-70
2021/12/31 01:57:40;;;;;;;9.07;3.70;;;;;;;12.73;91.66;101660.50;5074842;28;20032;-69
2021/12/31 02:00:06;;;;;;;7.53;3.33;;;;;;;12.68;92.06;101656.84;5093019;28;20064;-69
2021/12/31 02:02:31;;;;;;;10.32;3.63;;;;;;;12.74;91.87;101656.13;5075588;28;20024;-70
2021/12/31 02:04:57;;;;;;;10.50;3.50;;;;;;;12.71;91.51;101641.72;5078494;28;20363;-69
2021/12/31 02:07:23;;;;;;;9.82;3.20;;;;;;;12.75;91.44;101649.97;5096608;28;20101;-70
2021/12/31 02:09:53;;;;;;;10.25;3.30;;;;;;;12.77;91.17;101645.41;5096384;28;20035;-70
2021/12/31 02:12:18;;;;;;;8.50;3.42;;;;;;;12.72;91.42;101645.16;5096465;28;20020;-70
2021/12/31 02:14:44;;;;;;;10.75;3.67;;;;;;;12.68;91.83;101647.28;5096400;28;20081;-70
2021/12/31 02:17:10;;;;;;;10.02;3.85;;;;;;;12.67;92.08;101647.47;5096949;28;20146;-70
2021/12/31 02:19:37;;;;;;;9.02;3.15;;;;;;;12.71;91.65;101646.13;5096388;28;20029;-70
2021/12/31 02:22:03;;;;;;;10.73;3.47;;;;;;;12.72;91.38;101647.75;5096342;28;20390;-71
2021/12/31 02:24:28;;;;;;;6.43;3.00;;;;;;;12.76;91.35;101648.97;5096239;28;20024;-70
2021/12/31 02:26:54;;;;;;;6.57;2.83;;;;;;;12.74;91.00;101643.97;5096254;28;20107;-70
2021/12/31 02:29:23;;;;;;;5.55;2.72;;;;;;;12.74;91.06;101643.97;5096185;28;20099;-70
2021/12/31 02:31:48;;;;;;;11.55;3.33;;;;;;;12.77;90.83;101648.00;5096178;28;20043;-69
2021/12/31 02:34:14;;;;;;;9.90;3.40;;;;;;;12.76;90.85;101647.19;5096723;28;20113;-71
2021/12/31 02:36:39;;;;;;;7.60;2.88;;;;;;;12.77;90.61;101643.59;5095930;28;20107;-71
2021/12/31 02:39:04;;;;;;;8.90;3.38;;;;;;;12.82;90.32;101645.66;5096056;28;20359;-72
2021/12/31 02:41:30;;;;;;;5.18;2.75;;;;;;;12.83;90.45;101645.50;5096020;28;20384;-71
2021/12/31 02:43:55;;;;;;;4.95;2.80;;;;;;;12.80;89.92;101650.22;5095884;28;20062;-70
2021/12/31 02:46:20;;;;;;;9.70;3.53;;;;;;;12.84;90.19;101652.28;5096189;28;20027;-70
2021/12/31 02:48:55;;;;;;;12.68;3.05;;;;;;;12.85;90.11;101653.09;5095872;28;20098;-70
2021/12/31 02:51:20;;;;;;;7.25;3.00;;;;;;;12.85;89.78;101634.94;5095754;28;20382;-71
2021/12/31 02:53:48;;;;;;;10.63;3.08;;;;;;;12.86;89.60;101641.75;5095860;28;20020;-72
2021/12/31 02:56:16;;;;;;;6.55;2.60;;;;;;;12.87;89.57;101643.34;5077416;28;20502;-70
2021/12/31 02:58:43;;;;;;;6.25;2.90;;;;;;;12.88;89.31;101645.75;5077466;28;20016;-71
2021/12/31 03:01:08;;;;;;;9.40;2.83;;;;;;;12.89;89.45;101646.56;5095577;28;20465;-70
2021/12/31 03:03:35;;;;;;;8.93;3.15;;;;;;;12.88;89.18;101648.34;5095566;28;20104;-71
2021/12/31 03:06:02;;;;;;;7.53;2.80;;;;;;;12.84;89.08;101638.50;5095436;28;20024;-70
2021/12/31 03:08:30;;;;;;;8.88;3.17;;;;;;;12.91;88.97;101657.53;5095381;28;20028;-71
2021/12/31 03:10:58;;;;;;;6.90;2.50;;;;;;;12.85;89.62;101648.69;5077303;28;20031;-70
2021/12/31 03:13:24;;;;;;;9.05;2.83;;;;;;;12.90;88.94;101645.56;5095011;28;20179;-69
2021/12/31 03:15:52;;;;;;;7.60;2.67;;;;;;;12.87;89.28;101636.34;5095180;28;20146;-70
2021/12/31 03:18:18;;;;;;;11.70;2.85;;;;;;;12.87;89.11;101641.53;5077127;28;20024;-71
2021/12/31 03:20:57;;;;;;;6.00;2.75;;;;;;;12.88;88.88;101631.97;5095238;28;20028;-71
2021/12/31 03:23:24;;;;;;;8.13;2.75;;;;;;;12.86;89.25;101626.97;5095199;28;20360;-71
2021/12/31 03:25:49;;;;;;;8.73;2.78;;;;;;;12.92;88.69;101625.44;5095143;28;20020;-70
2021/12/31 03:28:14;;;;;;;10.82;2.70;;;;;;;12.90;88.65;101617.03;5094968;28;20363;-69
2021/12/31 03:30:39;;;;;;;6.50;2.80;;;;;;;12.93;88.40;101621.06;5076861;28;20114;-71
2021/12/31 03:33:05;;;;;;;6.25;2.50;;;;;;;12.93;88.29;101613.28;5095312;28;20459;-70
2021/12/31 03:35:30;;;;;;;9.25;2.83;;;;;;;12.96;88.38;101608.53;5076713;28;20466;-72
2021/12/31 03:37:55;;;;;;;9.93;2.88;;;;;;;12.95;88.23;101616.50;5095402;28;20038;-71
2021/12/31 03:40:22;;;;;;;5.10;2.55;;;;;;;12.93;88.08;101610.69;5076879;28;20523;-71
2021/12/31 03:42:47;;;;;;;5.57;2.75;;;;;;;12.95;88.22;101621.69;5094740;28;20485;-70
2021/12/31 03:45:12;;;;;;;9.80;2.63;;;;;;;12.97;87.78;101610.13;5094645;28;20028;-71
2021/12/31 03:47:38;;;;;;;9.20;2.67;;;;;;;12.97;87.32;101615.31;5076498;28;20455;-71
2021/12/31 03:50:03;;;;;;;8.15;2.67;;;;;;;12.96;87.82;101621.50;5094559;28;20032;-71
2021/12/31 03:52:29;;;;;;;7.28;2.60;;;;;;;12.94;87.81;101610.47;5094488;28;20027;-71
2021/12/31 03:54:54;;;;;;;7.93;2.38;;;;;;;12.97;87.51;101617.09;5094591;28;20040;-71
2021/12/31 03:57:19;;;;;;;5.50;2.30;;;;;;;12.96;87.33;101613.72;5094902;28;20086;-72
2021/12/31 03:59:44;;;;;;;8.23;2.50;;;;;;;12.98;87.26;101608.34;5094458;28;20407;-71
2021/12/31 04:02:10;;;;;;;11.20;3.13;;;;;;;12.98;87.33;101616.94;5094726;28;20031;-69
2021/12/31 04:04:35;;;;;;;7.88;2.65;;;;;;;12.99;87.07;101618.53;5076220;28;20493;-70
2021/12/31 04:07:00;;;;;;;6.53;2.33;;;;;;;13.04;87.14;101616.19;5094640;28;20119;-69
2021/12/31 04:09:26;;;;;;;8.77;2.65;;;;;;;13.01;87.11;101616.56;5094245;28;20466;-70
2021/12/31 04:11:51;;;;;;;5.40;2.45;;;;;;;13.02;87.12;101614.78;5094266;28;20024;-72
2021/12/31 04:14:16;;;;;;;8.13;2.72;;;;;;;13.04;86.63;101610.22;5094141;28;20024;-72
2021/12/31 04:16:42;;;;;;;7.22;2.45;;;;;;;13.01;86.48;101610.59;5094386;28;20020;-71
2021/12/31 04:19:07;;;;;;;7.10;2.40;;;;;;;12.97;87.15;101599.75;5094129;28;20374;-71
2021/12/31 04:21:33;;;;;;;5.82;2.25;;;;;;;12.95;87.08;101606.13;5094128;28;20019;-72
2021/12/31 04:24:14;;;;;;;8.52;2.67;;;;;;;13.00;86.76;101609.75;5075870;28;20439;-70
2021/12/31 04:26:40;;;;;;;6.95;2.40;;;;;;;12.96;87.53;101603.34;5075550;28;20047;-71
2021/12/31 04:29:05;;;;;;;5.03;2.20;;;;;;;12.94;nan;101594.91;5075476;28;20028;-71
2021/12/31 04:31:30;;;;;;;6.45;2.15;;;;;;;12.97;86.15;101599.75;5093945;28;20028;-69
2021/12/31 04:33:56;;;;;;;6.22;2.47;;;;;;;12.96;86.43;101603.34;5093817;28;20047;-69
2021/12/31 04:36:21;;;;;;;13.48;2.67;;;;;;;12.91;86.43;101592.69;5094094;28;20032;-71
2021/12/31 04:38:47;;;;;;;8.70;2.30;;;;;;;12.96;86.58;101586.97;5093799;28;20098;-70
2021/12/31 04:41:12;;;;;;;6.30;2.50;;;;;;;12.95;85.65;101580.97;5075628;28;20028;-71
2021/12/31 04:43:37;;;;;;;7.45;2.25;;;;;;;12.93;86.38;101582.94;5075566;28;20024;-70
2021/12/31 04:46:02;;;;;;;6.28;1.98;;;;;;;12.83;86.77;101567.69;5075556;28;20111;-70
2021/12/31 04:48:28;;;;;;;8.07;2.17;;;;;;;12.88;86.29;101580.09;5093519;28;20032;-70
2021/12/31 04:50:53;;;;;;;6.72;2.35;;;;;;;12.81;86.46;101580.03;5093883;28;20023;-70
2021/12/31 04:53:18;;;;;;;8.75;2.20;;;;;;;12.82;86.63;101571.25;5093484;28;20024;-70
2021/12/31 04:55:44;;;;;;;9.45;2.65;;;;;;;12.82;86.68;101570.44;5075167;28;20134;-71
2021/12/31 04:58:09;;;;;;;5.45;2.10;;;;;;;12.76;86.61;101566.00;5093490;28;20024;-71
2021/12/31 05:00:35;;;;;;;7.88;2.13;;;;;;;12.75;86.49;101566.97;5093486;28;20098;-69
2021/12/31 05:03:10;;;;;;;7.50;2.47;;;;;;;12.72;86.31;101564.75;5093445;28;20101;-71
2021/12/31 05:05:37;;;;;;;4.65;2.15;;;;;;;12.65;86.98;101562.88;5093288;28;20059;-71
2021/12/31 05:08:04;;;;;;;6.97;2.30;;;;;;;12.68;86.70;101556.50;5075195;28;20028;-71
2021/12/31 05:10:32;;;;;;;7.35;2.45;;;;;;;12.69;86.41;101562.50;5093345;28;20024;-70
2021/12/31 05:12:59;;;;;;;5.28;2.50;;;;;;;12.64;86.66;101552.69;5075270;28;20124;-71
2021/12/31 05:15:27;;;;;;;4.20;2.05;;;;;;;12.64;87.01;101557.88;5075274;28;20066;-69
2021/12/31 05:17:53;;;;;;;5.18;2.20;;;;;;;12.59;86.80;101555.00;5093537;28;20020;-71
2021/12/31 05:20:19;;;;;;;4.82;2.20;;;;;;;12.57;86.97;101538.81;5093245;28;20028;-71
2021/12/31 05:22:45;;;;;;;8.10;2.47;;;;;;;12.57;86.93;101557.81;5093318;28;20030;-70
2021/12/31 05:25:10;;;;;;;7.60;2.30;;;;;;;12.54;87.28;101552.16;5093221;28;20449;-73
2021/12/31 05:27:36;;;;;;;9.25;2.30;;;;;;;12.56;86.88;101552.78;5092841;28;20028;-70
2021/12/31 05:30:01;;;;;;;8.68;2.50;;;;;;;12.56;86.80;101556.16;5091182;28;20063;-71
2021/12/31 05:32:26;;;;;;;4.95;2.13;;;;;;;12.56;86.74;101561.38;5073011;28;20020;-69
2021/12/31 05:34:52;;;;;;;12.15;2.80;;;;;;;12.57;86.55;101557.81;5091530;28;20020;-70
2021/12/31 05:37:17;;;;;;;10.77;2.63;;;;;;;12.53;86.31;101550.56;5093400;28;20024;-70
2021/12/31 05:39:44;;;;;;;4.50;2.20;;;;;;;12.52;87.12;101565.31;5078823;28;20485;-70
2021/12/31 05:42:10;;;;;;;9.38;2.67;;;;;;;12.55;86.53;101562.34;5097055;28;20466;-71
2021/12/31 05:44:35;;;;;;;6.40;2.30;;;;;;;12.55;86.40;101564.94;5078884;28;20024;-72
2021/12/31 05:47:00;;;;;;;9.02;2.33;;;;;;;12.56;86.23;101563.16;5097010;28;20020;-70
2021/12/31 05:49:25;;;;;;;8.82;2.65;;;;;;;12.53;86.57;101561.72;5096851;28;20470;-70
2021/12/31 05:51:51;;;;;;;7.95;2.50;;;;;;;12.53;85.91;101559.13;5096959;28;20027;-70
2021/12/31 05:54:16;;;;;;;7.20;2.55;;;;;;;12.50;86.17;101559.50;5095882;28;20110;-72
2021/12/31 05:56:42;;;;;;;7.13;2.05;;;;;;;12.55;86.16;101546.00;5078509;28;20401;-71
2021/12/31 05:59:07;;;;;;;4.13;2.30;;;;;;;12.52;86.21;101544.56;5096804;28;20016;-70
2021/12/31 06:01:32;;;;;;;9.18;2.40;;;;;;;12.46;86.16;101545.28;5096727;28;20020;-70
2021/12/31 06:03:57;;;;;;;10.57;2.50;;;;;;;12.50;86.24;101551.72;5096938;28;20031;-70
2021/12/31 06:06:23;;;;;;;4.75;2.15;;;;;;;12.45;86.71;101571.38;5078304;28;20024;-70
2021/12/31 06:08:48;;;;;;;5.40;2.42;;;;;;;12.45;86.29;101572.19;5096494;28;20477;-70
2021/12/31 06:11:14;;;;;;;5.78;2.33;;;;;;;12.47;86.34;101577.19;5096478;28;20081;-72
2021/12/31 06:13:39;;;;;;;6.72;2.55;;;;;;;12.48;86.21;101571.03;5096518;28;20099;-70
2021/12/31 06:16:05;;;;;;;6.65;2.10;;;;;;;12.45;85.71;101548.06;5096360;28;20020;-71
2021/12/31 06:18:31;;;;;;;5.75;2.50;;;;;;;12.43;85.85;101548.25;5078268;28;20420;-70
2021/12/31 06:20:56;;;;;;;5.30;2.22;;;;;;;12.42;85.81;101544.03;5078132;28;20138;-70
2021/12/31 06:23:22;;;;;;;5.38;2.40;;;;;;;12.40;85.56;101543.44;5096507;28;20024;-71
2021/12/31 06:25:47;;;;;;;8.70;2.83;;;;;;;12.38;85.74;101547.97;5096942;28;20077;-70
2021/12/31 06:28:12;;;;;;;6.57;2.35;;;;;;;12.32;86.11;101539.13;5096088;28;20020;-71
2021/12/31 06:30:37;;;;;;;9.52;2.75;;;;;;;12.34;86.16;101534.59;5096125;28;20024;-70
2021/12/31 06:33:03;;;;;;;4.13;2.30;;;;;;;12.33;86.26;101529.56;5096085;28;20030;-71
2021/12/31 06:35:28;;;;;;;7.53;2.80;;;;;;;12.27;86.19;101531.09;5095989;28;20016;-72
2021/12/31 06:37:55;;;;;;;5.97;2.50;;;;;;;12.29;85.68;101523.16;5077704;28;20478;-70
2021/12/31 06:40:22;;;;;;;5.85;2.50;;;;;;;12.16;86.42;101526.34;5095897;28;20022;-70
2021/12/31 06:42:48;;;;;;;8.93;2.63;;;;;;;12.17;86.33;101528.78;5077794;28;20028;-70
2021/12/31 06:45:13;;;;;;;9.23;2.55;;;;;;;12.22;86.20;101543.78;5077740;28;20081;-71
2021/12/31 06:47:38;;;;;;;7.68;2.60;;;;;;;12.15;86.47;101535.13;5095846;28;20031;-71
2021/12/31 06:50:04;;;;;;;6.47;2.50;;;;;;;12.10;86.83;101537.44;5095547;28;20020;-71
2021/12/31 06:52:30;;;;;;;7.80;2.67;;;;;;;12.10;86.50;101527.88;5077453;28;20066;-71
2021/12/31 06:54:55;;;;;;;9.77;2.47;;;;;;;12.11;86.25;101516.53;5095410;28;20473;-70
2021/12/31 06:57:20;;;;;;;5.38;2.15;;;;;;;12.14;85.96;101510.16;5095578;28;20081;-70
2021/12/31 06:59:45;;;;;;;5.90;2.33;;;;;;;12.14;85.83;101510.16;5095755;28;20022;-70
2021/12/31 07:02:11;;;;;;;4.53;2.33;;;;;;;12.12;86.20;101499.19;5095542;28;20379;-72
2021/12/31 07:04:36;;;;;;;6.78;2.40;;;;;;;12.12;85.93;101504.38;5077182;28;20039;-72
2021/12/31 07:07:01;;;;;;;8.30;2.30;;;;;;;12.07;86.50;101517.06;5077291;28;20027;-72
2021/12/31 07:09:27;;;;;;;5.90;2.47;;;;;;;12.10;86.04;101516.69;5077236;28;20108;-70
2021/12/31 07:11:52;;;;;;;4.68;2.30;;;;;;;12.10;85.84;101509.72;5095262;28;20024;-70
2021/12/31 07:14:18;;;;;;;4.38;1.98;;;;;;;12.09;86.02;101510.72;5077083;28;20050;-70
2021/12/31 07:16:43;;;;;;;6.82;2.50;;;;;;;12.05;85.98;101522.41;5095253;28;20031;-70
2021/12/31 07:19:08;;;;;;;5.78;2.22;;;;;;;12.08;85.60;101521.25;5077001;28;20032;-70
2021/12/31 07:21:34;;;;;;;5.85;2.20;;;;;;;12.11;85.91;101526.91;5095117;28;20031;-70
2021/12/31 07:23:59;;;;;;;7.78;2.33;;;;;;;12.05;86.19;101535.38;5076960;28;20417;-71
2021/12/31 07:26:24;;;;;;;6.95;2.92;;;;;;;12.06;85.76;101544.75;5076965;28;20069;-71
2021/12/31 07:28:50;;;;;;;7.35;2.65;;;;;;;12.11;85.11;101544.22;5076860;28;20028;-71
2021/12/31 07:31:16;;;;;;;9.32;3.22;;;;;;;12.11;85.30;101555.41;5094881;28;20023;-70
2021/12/31 07:33:42;;;;;;;5.80;2.60;;;;;;;12.11;85.79;101551.97;5095033;28;20374;-70
2021/12/31 07:36:07;;;;;;;7.50;2.88;;;;;;;12.15;85.71;101568.81;5093135;28;20020;-72
2021/12/31 07:38:36;;;;;;;11.95;4.20;;;;;;;12.16;85.44;101562.63;5075698;28;20035;-72
2021/12/31 07:41:03;;;;;;;7.70;2.45;;;;;;;12.15;85.57;101545.47;5076367;28;20035;-70
2021/12/31 07:43:28;;;;;;;7.43;2.85;;;;;;;12.15;85.63;101553.25;5094555;28;20034;-71
2021/12/31 07:45:54;;;;;;;7.15;2.35;;;;;;;12.12;85.42;101559.59;5076226;28;20020;-70
2021/12/31 07:48:20;;;;;;;6.28;2.67;;;;;;;12.18;85.25;101564.06;5094569;28;20536;-71
2021/12/31 07:50:46;;;;;;;6.68;2.50;;;;;;;12.22;85.08;101569.69;5076502;28;20476;-71
2021/12/31 07:53:12;;;;;;;8.75;2.40;;;;;;;12.22;85.16;101569.69;5094574;28;20020;-70
2021/12/31 07:55:37;;;;;;;7.05;2.58;;;;;;;12.21;85.00;101565.50;5075995;28;20047;-70
2021/12/31 07:58:05;;;;;;;8.05;2.53;;;;;;;12.21;84.88;101556.91;5076227;28;20028;-70
2021/12/31 08:00:31;;;;;;;6.57;2.53;;;;;;;12.18;84.91;101561.47;5093983;28;20103;-71
2021/12/31 08:02:57;;;;;;;5.32;2.20;;;;;;;12.15;85.23;101559.22;5094458;28;20056;-69
2021/12/31 08:05:23;;;;;;;4.85;2.25;;;;;;;12.13;85.41;101563.78;5094861;28;20031;-71
2021/12/31 08:07:49;;;;;;;5.05;2.55;;;;;;;12.16;85.26;101568.59;5094271;28;20470;-71
2021/12/31 08:10:14;;;;;;;6.53;2.13;;;;;;;12.13;85.12;101560.38;5094249;28;20024;-71
2021/12/31 08:12:39;;;;;;;8.18;2.53;;;;;;;12.15;85.50;101561.81;5094436;28;20035;-73
2021/12/31 08:15:06;;;;;;;6.85;2.50;;;;;;;12.16;85.20;101560.03;5094171;28;20024;-73
2021/12/31 08:17:31;;;;;;;6.15;2.13;;;;;;;12.11;85.21;101563.19;5094030;28;20119;-71
2021/12/31 08:19:57;;;;;;;4.95;2.35;;;;;;;12.18;85.12;101579.59;5094059;28;20054;-71
2021/12/31 08:22:23;;;;;;;5.85;2.13;;;;;;;12.21;85.09;101569.88;5094060;28;20047;-72
2021/12/31 08:24:48;;;;;;;8.85;2.67;;;;;;;12.15;85.25;101568.81;5075802;28;20024;-72
2021/12/31 08:27:13;;;;;;;5.47;2.35;;;;;;;12.16;84.95;101567.81;5093862;28;20028;-72
2021/12/31 08:29:39;;;;;;;4.18;2.20;;;;;;;12.21;85.10;101581.03;5093701;28;20081;-72
2021/12/31 08:32:05;;;;;;;7.45;2.50;;;;;;;12.22;85.01;101584.44;5093848;28;20169;-72
2021/12/31 08:34:30;;;;;;;5.78;2.50;;;;;;;12.21;84.99;101578.44;5093895;28;20024;-71
2021/12/31 08:36:55;;;;;;;4.75;2.50;;;;;;;12.19;84.89;101576.03;5093878;28;20382;-75
2021/12/31 08:39:21;;;;;;;8.77;3.05;;;;;;;12.28;84.62;101589.69;5075594;28;20048;-71
2021/12/31 08:41:47;;;;;;;8.80;2.50;;;;;;;12.22;84.62;101569.69;5075687;28;20062;-72
2021/12/31 08:44:12;;;;;;;6.95;2.53;;;;;;;12.19;85.15;101562.25;5092786;28;20073;-71
2021/12/31 08:46:38;;;;;;;9.18;2.67;;;;;;;12.23;84.54;101567.88;5092381;28;20073;-71
2021/12/31 08:49:03;;;;;;;8.38;2.50;;;;;;;12.21;85.09;101572.47;5092916;28;20059;-72
2021/12/31 08:51:29;;;;;;;5.10;2.50;;;;;;;12.23;84.76;101575.66;5093515;28;20027;-70
2021/12/31 08:53:54;;;;;;;6.88;2.72;;;;;;;12.26;84.44;101570.16;5093287;28;20073;-71
2021/12/31 08:56:20;;;;;;;7.22;2.80;;;;;;;12.20;84.83;101556.13;5094033;28;20101;-71
2021/12/31 08:58:46;;;;;;;8.10;2.83;;;;;;;12.22;84.70;101559.31;5093589;28;20077;-72
2021/12/31 09:01:12;;;;;;;6.00;2.72;;;;;;;12.27;84.53;101571.75;5074653;28;20031;-71
2021/12/31 09:03:38;;;;;;;8.80;2.63;;;;;;;12.27;84.71;101572.56;5075326;28;20032;-71
2021/12/31 09:06:03;;;;;;;9.95;2.45;;;;;;;12.24;84.87;101572.91;5075302;28;20030;-71
2021/12/31 09:08:29;;;;;;;9.35;2.45;;;;;;;12.28;84.11;101587.09;5093028;28;20436;-72
2021/12/31 09:10:54;;;;;;;4.50;2.45;;;;;;;12.29;84.38;101580.97;5093266;28;20064;-72
2021/12/31 09:13:20;;;;;;;5.88;2.70;;;;;;;12.32;84.06;101572.81;5096572;28;20024;-72
2021/12/31 09:15:47;;;;;;;6.95;2.80;;;;;;;12.37;84.24;101562.72;5097656;28;20020;-71
2021/12/31 09:18:12;;;;;;;5.40;2.67;;;;;;;12.29;84.11;101577.56;5097551;28;20027;-70
2021/12/31 09:20:37;;;;;;;6.47;3.00;;;;;;;12.33;84.16;101586.59;5097899;28;20020;-71
2021/12/31 09:23:03;;;;;;;9.27;2.78;;;;;;;12.45;83.67;101587.72;5097353;28;20058;-73
2021/12/31 09:25:28;;;;;;;8.25;3.20;;;;;;;12.49;83.51;101599.38;5097350;28;20165;-73
2021/12/31 09:27:54;;;;;;;7.65;2.75;;;;;;;12.59;83.37;101596.50;5097549;28;20161;-73
2021/12/31 09:30:19;;;;;;;6.20;2.80;;;;;;;12.63;82.85;101583.00;5079085;28;20489;-72
2021/12/31 09:32:45;;;;;;;5.95;2.47;;;;;;;12.88;81.98;101588.66;5097267;28;20031;-71
2021/12/31 09:35:10;;;;;;;7.75;2.60;;;;;;;12.86;82.36;101589.88;5077049;28;20019;-70
2021/12/31 09:37:36;;;;;;;6.32;2.60;;;;;;;12.64;82.70;101600.16;5076995;28;20061;-70
2021/12/31 09:40:03;;;;;;;4.57;2.67;;;;;;;12.61;82.93;101610.91;5095282;28;20013;-70
2021/12/31 09:42:28;;;;;;;9.18;3.10;;;;;;;12.51;83.70;101625.91;5095340;28;20020;-71
2021/12/31 09:44:54;;;;;;;6.60;2.38;;;;;;;12.52;84.01;101630.13;5095176;28;20028;-70
2021/12/31 09:47:19;;;;;;;5.47;2.97;;;;;;;12.49;83.79;101622.72;5095039;28;20314;-70
2021/12/31 09:49:47;;;;;;;9.02;2.70;;;;;;;12.39;83.76;101630.72;5095652;28;20046;-70
2021/12/31 09:52:14;;;;;;;5.07;2.60;;;;;;;12.44;84.25;101632.00;5096129;28;20050;-72
2021/12/31 09:54:41;;;;;;;3.97;2.35;;;;;;;12.46;83.95;101611.88;5096595;28;20113;-71
2021/12/31 09:57:15;;;;;;;7.70;2.88;;;;;;;12.44;83.36;101609.47;5078716;28;20024;-71
2021/12/31 09:59:41;;;;;;;8.00;2.67;;;;;;;12.48;83.89;101613.31;5097102;28;20058;-72
2021/12/31 10:02:09;;;;;;;6.78;2.53;;;;;;;12.54;83.36;101624.75;5097043;28;20027;-72
2021/12/31 10:04:57;;;;;;;9.45;2.67;;;;;;;12.54;83.54;101629.94;5096951;28;20020;-73
2021/12/31 10:07:24;;;;;;;4.90;2.70;;;;;;;12.40;84.33;101618.59;5096897;28;20371;-73
2021/12/31 10:10:09;;;;;;;7.55;2.78;;;;;;;12.45;84.04;101626.63;5078515;28;20044;-73
2021/12/31 10:12:50;;;;;;;8.30;2.70;;;;;;;12.41;84.02;101631.38;5078483;28;20093;-74
2021/12/31 10:15:17;;;;;;;6.45;2.45;;;;;;;12.58;83.29;101642.38;5096738;28;20110;-73
2021/12/31 10:17:43;;;;;;;6.43;2.78;;;;;;;12.68;83.13;101616.16;5078568;28;20016;-73
2021/12/31 10:20:08;;;;;;;21.92;12.57;;;;;;;12.77;82.79;101612.47;5078499;28;20107;-72
2021/12/31 10:22:34;;;;;;;9.40;3.40;;;;;;;12.83;82.11;101603.16;5096744;28;20035;-75
2021/12/31 10:24:59;;;;;;;7.53;3.55;;;;;;;12.68;83.41;101589.44;5096204;28;20477;-73
2021/12/31 10:27:25;;;;;;;11.82;6.50;;;;;;;12.69;83.40;101591.03;5096563;28;20020;-74
2021/12/31 10:30:03;;;;;;;8.57;2.85;;;;;;;12.72;83.14;101601.06;5096288;28;20024;-73
2021/12/31 10:32:40;;;;;;;6.28;2.90;;;;;;;12.70;82.93;101609.00;5096928;28;20073;-73
2021/12/31 10:35:21;;;;;;;7.15;2.90;;;;;;;12.68;83.89;101608.38;5096683;28;20028;-71
2021/12/31 10:37:50;;;;;;;8.57;3.03;;;;;;;12.66;83.11;101600.00;5096417;28;20024;-72
2021/12/31 10:40:34;;;;;;;7.28;3.05;;;;;;;12.54;83.02;101610.00;5096120;28;20511;-71
2021/12/31 10:43:18;;;;;;;7.95;3.55;;;;;;;12.63;83.60;101590.78;5095216;28;20099;-72
2021/12/31 10:46:07;;;;;;;7.22;3.10;;;;;;;12.69;83.17;101583.25;5094183;28;20111;-73
2021/12/31 10:48:38;;;;;;;9.80;3.50;;;;;;;12.64;83.51;101571.63;5076648;28;20050;-72
2021/12/31 10:51:04;;;;;;;11.55;3.80;;;;;;;12.70;83.31;101553.75;5096849;28;20043;-71
2021/12/31 10:53:33;;;;;;;5.07;3.03;;;;;;;12.74;82.41;101534.22;5097034;28;20024;-70
2021/12/31 10:56:11;;;;;;;10.38;3.03;;;;;;;12.93;81.88;101506.91;5097003;28;20458;-71
2021/12/31 10:58:39;;;;;;;7.07;3.17;;;;;;;12.79;82.31;101501.56;5097522;28;20032;-70
2021/12/31 11:01:07;;;;;;;6.35;3.00;;;;;;;13.02;82.44;101511.00;5097224;28;20472;-70
2021/12/31 11:03:38;;;;;;;6.88;3.20;;;;;;;12.96;81.89;101535.88;5097102;28;20019;-70
2021/12/31 11:06:04;;;;;;;5.95;2.70;;;;;;;12.88;82.91;101536.78;5096568;28;20359;-69
2021/12/31 11:08:32;;;;;;;10.15;3.00;;;;;;;12.93;82.11;101551.00;5096340;28;20017;-72
2021/12/31 11:10:58;;;;;;;8.70;3.22;;;;;;;13.20;81.30;101534.72;5074312;28;20039;-72
2021/12/31 11:13:28;;;;;;;9.95;3.33;;;;;;;13.22;81.46;101544.91;5090632;28;20024;-71
2021/12/31 11:15:54;;;;;;;7.95;3.13;;;;;;;13.17;81.39;101557.63;5072835;28;20080;-71
2021/12/31 11:18:23;;;;;;;6.70;3.17;;;;;;;13.32;81.74;101563.59;5090253;28;20031;-71
2021/12/31 11:20:50;;;;;;;9.02;3.17;;;;;;;13.48;80.13;101560.75;5090677;28;20027;-71
2021/12/31 11:23:16;;;;;;;9.77;3.55;;;;;;;13.31;81.05;101567.97;5092833;28;20024;-70
2021/12/31 11:26:00;;;;;;;8.05;3.20;;;;;;;13.23;81.32;101562.88;5091855;28;20476;-71
2021/12/31 11:28:28;;;;;;;6.20;2.97;;;;;;;13.17;81.65;101575.81;5073922;28;20020;-70